WetterOnline ( https://www.wetteronline.de )

Wetter aktuell Wünsch

Aktuelles Wetter: Leipzig/Halle (136m)

6-stündlich | Neueste Meldungen
Ortszeit Temperatur Wetter
Do, 23.05. 20:00 17.1° C leicht bewölkt
Do, 23.05. 14:00 17.3° C leicht bewölkt
Do, 23.05. 8:00 11.4° C wolkig
Do, 23.05. 2:00 6.8° C fast wolkenlos
Mi, 22.05. 20:00 13.2° C wolkig
Mi, 22.05. 14:00 12.8° C bedeckt
Mi, 22.05. 8:00 12.0° C bedeckt
Mi, 22.05. 2:00 13.5° C bedeckt
Ortszeit Temperatur Wetter
Do, 23.05. 20:30 16.1° C wolkig
Do, 23.05. 20:20 16.1° C wolkig
Do, 23.05. 20:10 16.3° C leicht bewölkt
Do, 23.05. 20:00 17.1° C leicht bewölkt
Do, 23.05. 19:50 17.1° C wolkig
Do, 23.05. 19:40 17.3° C leicht bewölkt
Do, 23.05. 19:30 18.4° C leicht bewölkt
Do, 23.05. 19:00 18.7° C leicht bewölkt
Do, 23.05. 18:30 19.1° C wolkig
Do, 23.05. 18:00 19.2° C leicht bewölkt
Do, 23.05. 17:30 19.1° C wolkenlos
Ortszeit Relative Feuchte Sichtweite
Do, 23.05. 20:00 52% 60 km
Do, 23.05. 14:00 48% 50 km
Do, 23.05. 8:00 75% 35 km
Do, 23.05. 2:00 91% 35 km
Mi, 22.05. 20:00 66% 40 km
Mi, 22.05. 14:00 78% 35 km
Mi, 22.05. 8:00 85% 10 km
Mi, 22.05. 2:00 90% 12 km
Ortszeit Relative Feuchte Sichtweite
Do, 23.05. 20:30 57% >70 km
Do, 23.05. 20:20 57% -
Do, 23.05. 20:10 56% -
Do, 23.05. 20:00 52% 60 km
Do, 23.05. 19:50 52% -
Do, 23.05. 19:40 51% -
Do, 23.05. 19:30 46% >70 km
Do, 23.05. 19:00 43% 60 km
Do, 23.05. 18:30 41% 60 km
Do, 23.05. 18:00 40% 60 km
Do, 23.05. 17:30 38% 65 km
Ortszeit Niederschlagsmenge Niederschlagsart
Do, 23.05. 20:00 0.0 l/m2 in 12 Std. -
Do, 23.05. 14:00 0.0 l/m2 in 6 Std. -
Do, 23.05. 8:00 0.0 l/m2 in 12 Std. -
Do, 23.05. 2:00 0.0 l/m2 in 6 Std. -
Mi, 22.05. 20:00 0.1 l/m2 in 12 Std. -
Mi, 22.05. 14:00 0.1 l/m2 in 6 Std. Sprühregen
Mi, 22.05. 8:00 0.1 l/m2 in 12 Std. Regen
Mi, 22.05. 2:00 0.0 l/m2 in 6 Std. -
Ortszeit Niederschlagsmenge Niederschlagsart
Do, 23.05. 20:30 0.0 l/m2 in 1 Std. -
Do, 23.05. 20:20 keine Meldung -
Do, 23.05. 20:10 keine Meldung -
Do, 23.05. 20:00 0.0 l/m2 in 1 Std. -
Do, 23.05. 19:50 keine Meldung -
Do, 23.05. 19:40 keine Meldung -
Do, 23.05. 19:30 0.0 l/m2 in 1 Std. -
Do, 23.05. 19:00 0.0 l/m2 in 1 Std. -
Do, 23.05. 18:30 0.0 l/m2 in 1 Std. -
Do, 23.05. 18:00 0.0 l/m2 in 1 Std. -
Do, 23.05. 17:30 0.0 l/m2 in 1 Std. -
Ortszeit Stärke Spitze Richtung
km/h Bft. km/h Grad Sektor
Do, 23.05. 20:00 9 2 44 10° N
Do, 23.05. 14:00 11 2 25 340° N
Do, 23.05. 8:00 4 1 14 290° W
Do, 23.05. 2:00 9 2 31 260° W
Mi, 22.05. 20:00 18 3 47 310° NW
Mi, 22.05. 14:00 25 4 50 310° NW
Mi, 22.05. 8:00 19 3 39 300° NW
Mi, 22.05. 2:00 14 3 47 310° NW
Ortszeit Stärke Spitze Richtung
km/h Bft. km/h Grad Sektor
Do, 23.05. 20:30 7 2 11 350° N
Do, 23.05. 20:20 7 2 - 350° N
Do, 23.05. 20:10 7 2 - 360° N
Do, 23.05. 20:00 9 2 13 10° N
Do, 23.05. 19:50 9 2 - 10° N
Do, 23.05. 19:40 7 2 - 360° N
Do, 23.05. 19:30 7 2 14 360° N
Do, 23.05. 19:00 7 2 22 340° N
Do, 23.05. 18:30 9 2 20 350° N
Do, 23.05. 18:00 9 2 30 310° NW
Do, 23.05. 17:30 11 2 30 330° NW
Ortszeit Untergrenze Bedeckung Gattung
total tief tief mittel hoch
Do, 23.05. 20:00 1500 m 5/8 1/8 Cu As Ci
Do, 23.05. 14:00 1350 m 7/8 1/8 Cu - Ci
Do, 23.05. 8:00 1080 m 6/8 5/8 Sc - Ci
Do, 23.05. 2:00 900 m 1/8 1/8 St Ac -
Mi, 22.05. 20:00 540 m 7/8 3/8 Cu As -
Mi, 22.05. 14:00 420 m 8/8 8/8 Cu - -
Mi, 22.05. 8:00 390 m 8/8 8/8 St - -
Mi, 22.05. 2:00 240 m 8/8 8/8 St - -
Ortszeit Bedeckungsgrad in Achtel und Wolkenuntergrenze
Do, 23.05. 20:30 4(5700m) 4(9000m) 7(10500m)
Do, 23.05. 20:20 4(5700m) 4(9000m) 7(10500m)
Do, 23.05. 20:10 1(6900m) 6(10500m) 6(10500m)
Do, 23.05. 20:00 1(1500m) 5(7800m) 7(10500m)
Do, 23.05. 19:50 2(6000m) 7(10500m) 7(10500m)
Do, 23.05. 19:40 3(6000m) 4(9000m) 5(10500m)
Do, 23.05. 19:30 2(6000m) 3(6600m) 5(9000m)
Do, 23.05. 19:00 1(6600m) 4(9000m) 6(10500m)
Do, 23.05. 18:30 2(6600m) 4(9000m) 6(10500m)
Do, 23.05. 18:00 1(1500m) 3(7800m)
Do, 23.05. 17:30 keine Wolken
Ortszeit Luftdruck NN (hPa) Tendenz (hPa in 3 Std.)
Do, 23.05. 20:00 1017 - 0,6
Do, 23.05. 14:00 1019 - 0,6
Do, 23.05. 8:00 1020 + 0,4
Do, 23.05. 2:00 1019 + 0,7
Mi, 22.05. 20:00 1017 + 0,5
Mi, 22.05. 14:00 1016 + 1,2
Mi, 22.05. 8:00 1013 + 1,2
Mi, 22.05. 2:00 1011 + 0,4
Ortszeit Luftdruck NN (hPa) Tendenz (hPa in 3 Std.)
Do, 23.05. 20:30 1017 - 0,5
Do, 23.05. 20:20 1017 keine Meldung
Do, 23.05. 20:10 1017 keine Meldung
Do, 23.05. 20:00 1017 - 0,6
Do, 23.05. 19:50 1017 keine Meldung
Do, 23.05. 19:40 1017 keine Meldung
Do, 23.05. 19:30 1017 - 0,6
Do, 23.05. 19:00 1017 - 0,8
Do, 23.05. 18:30 1017 - 1,0
Do, 23.05. 18:00 1017 - 1,1
Do, 23.05. 17:30 1017 - 1,2
Ortszeit Schneehöhe (cm)
Do, 23.05. 20:00 0
Do, 23.05. 14:00 0
Do, 23.05. 8:00 0
Do, 23.05. 2:00 0
Mi, 22.05. 20:00 0
Mi, 22.05. 14:00 0
Mi, 22.05. 8:00 0
Mi, 22.05. 2:00 0
Ortszeit Schneehöhe (cm)
Do, 23.05. 20:30 -
Do, 23.05. 20:20 -
Do, 23.05. 20:10 -
Do, 23.05. 20:00 0
Do, 23.05. 19:50 -
Do, 23.05. 19:40 -
Do, 23.05. 19:30 -
Do, 23.05. 19:00 -
Do, 23.05. 18:30 -
Do, 23.05. 18:00 -
Do, 23.05. 17:30 -
Link zu dieser Seite / Seite empfehlen

Das Wetter in ...